createdAt,value
2023-05-07T00:01:47.950Z,14.19
2023-05-07T00:04:38.768Z,14.19
2023-05-07T00:07:27.545Z,14.28
2023-05-07T00:10:15.995Z,14.23
2023-05-07T00:13:04.538Z,14.12
2023-05-07T00:15:53.041Z,14.12
2023-05-07T00:18:42.826Z,13.98
2023-05-07T00:21:31.602Z,13.93
2023-05-07T00:24:20.076Z,13.95
2023-05-07T00:27:08.525Z,13.99
2023-05-07T00:29:57.092Z,13.97
2023-05-07T00:32:46.438Z,13.91
2023-05-07T00:35:36.354Z,13.79
2023-05-07T00:38:25.065Z,13.80
2023-05-07T00:41:13.534Z,13.73
2023-05-07T00:44:02.599Z,13.73
2023-05-07T00:46:51.289Z,13.71
2023-05-07T00:49:42.248Z,13.62
2023-05-07T00:52:32.216Z,13.62
2023-05-07T00:55:20.933Z,13.55
2023-05-07T00:58:09.394Z,13.59
2023-05-07T01:00:57.928Z,13.41
2023-05-07T01:03:46.513Z,13.51
2023-05-07T01:06:35.550Z,13.50
2023-05-07T01:09:26.813Z,13.30
2023-05-07T01:12:15.406Z,13.46
2023-05-07T01:15:04.468Z,13.32
2023-05-07T01:17:53.030Z,13.42
2023-05-07T01:20:42.194Z,13.48
2023-05-07T01:23:32.403Z,13.47
2023-05-07T01:26:21.163Z,13.41
2023-05-07T01:29:09.717Z,13.39
2023-05-07T01:31:59.845Z,13.38
2023-05-07T01:34:49.975Z,13.41
2023-05-07T01:37:38.701Z,13.41
2023-05-07T01:40:29.488Z,13.43
2023-05-07T01:43:18.095Z,13.44
2023-05-07T01:46:06.905Z,13.45
2023-05-07T01:48:55.402Z,13.41
2023-05-07T01:51:43.910Z,13.40
2023-05-07T01:54:32.571Z,13.41
2023-05-07T01:57:22.838Z,13.33
2023-05-07T02:00:12.549Z,13.24
2023-05-07T02:03:01.518Z,13.18
2023-05-07T02:05:50.453Z,13.21
2023-05-07T02:08:38.980Z,13.26
2023-05-07T02:11:27.942Z,13.28
2023-05-07T02:14:17.741Z,13.25
2023-05-07T02:17:06.226Z,13.10
2023-05-07T02:19:54.648Z,13.13
2023-05-07T02:22:43.077Z,12.97
2023-05-07T02:25:31.574Z,12.93
2023-05-07T02:28:20.052Z,13.02
2023-05-07T02:31:09.857Z,13.06
2023-05-07T02:33:58.321Z,12.78
2023-05-07T02:36:46.940Z,12.94
2023-05-07T02:39:35.862Z,12.99
2023-05-07T02:42:24.354Z,12.91
2023-05-07T02:45:13.166Z,12.52
2023-05-07T02:48:03.008Z,12.97
2023-05-07T02:50:51.545Z,12.92
2023-05-07T02:53:40.046Z,12.88
2023-05-07T02:56:28.852Z,12.85
2023-05-07T02:59:17.345Z,12.81
2023-05-07T03:02:06.478Z,12.83
2023-05-07T03:04:56.283Z,12.88
2023-05-07T03:07:47.042Z,12.78
2023-05-07T03:10:35.602Z,12.83
2023-05-07T03:13:24.211Z,12.73
2023-05-07T03:16:12.805Z,12.75
2023-05-07T03:19:01.397Z,12.76
2023-05-07T03:21:51.390Z,12.68
2023-05-07T03:24:39.900Z,12.70
2023-05-07T03:27:28.358Z,12.71
2023-05-07T03:30:16.849Z,12.66
2023-05-07T03:33:05.624Z,12.63
2023-05-07T03:35:54.095Z,12.63
2023-05-07T03:38:43.898Z,12.64
2023-05-07T03:41:32.621Z,12.54
2023-05-07T03:44:21.144Z,12.62
2023-05-07T03:47:11.118Z,12.55
2023-05-07T03:50:00.400Z,12.69
2023-05-07T03:52:48.868Z,12.68
2023-05-07T03:55:38.643Z,12.55
2023-05-07T03:58:27.097Z,12.51
2023-05-07T04:01:15.681Z,12.58
2023-05-07T04:04:05.326Z,12.62
2023-05-07T04:06:54.000Z,12.67
2023-05-07T04:09:42.505Z,12.70
2023-05-07T04:12:32.290Z,12.75
2023-05-07T04:15:20.894Z,12.78
2023-05-07T04:18:09.497Z,12.80
2023-05-07T04:20:58.104Z,12.75
2023-05-07T04:23:46.717Z,12.85
2023-05-07T04:26:35.156Z,12.84
2023-05-07T04:29:24.901Z,12.89
2023-05-07T04:32:13.730Z,12.87
2023-05-07T04:35:02.350Z,12.87
2023-05-07T04:37:50.885Z,12.88
2023-05-07T04:40:39.886Z,12.90
2023-05-07T04:43:28.383Z,12.74
2023-05-07T04:46:18.215Z,12.93
2023-05-07T04:49:06.858Z,12.86
2023-05-07T04:51:55.428Z,12.93
2023-05-07T04:54:43.962Z,12.93
2023-05-07T04:57:32.496Z,12.99
2023-05-07T05:00:21.210Z,12.97
2023-05-07T05:03:11.306Z,13.00
2023-05-07T05:06:00.835Z,13.03
2023-05-07T05:08:49.268Z,13.04
2023-05-07T05:11:37.813Z,13.10
2023-05-07T05:14:26.301Z,13.06
2023-05-07T05:17:14.845Z,13.27
2023-05-07T05:20:05.681Z,13.29
2023-05-07T05:22:54.151Z,13.39
2023-05-07T05:25:42.620Z,13.54
2023-05-07T05:28:31.127Z,13.70
2023-05-07T05:31:19.612Z,13.81
2023-05-07T05:34:08.098Z,13.82
2023-05-07T05:36:58.005Z,13.91
2023-05-07T05:39:46.576Z,14.05
2023-05-07T05:42:35.236Z,14.08
2023-05-07T05:45:23.819Z,14.16
2023-05-07T05:48:12.475Z,14.26
2023-05-07T05:51:01.090Z,14.50
2023-05-07T05:53:51.288Z,13.92
2023-05-07T05:56:39.838Z,14.78
2023-05-07T05:59:28.546Z,14.97
2023-05-07T06:02:17.208Z,15.08
2023-05-07T06:05:06.890Z,15.12
2023-05-07T06:07:55.548Z,15.22
2023-05-07T06:10:45.412Z,15.34
2023-05-07T06:13:33.953Z,15.52
2023-05-07T06:16:22.571Z,15.64
2023-05-07T06:19:10.999Z,15.88
2023-05-07T06:21:59.517Z,15.98
2023-05-07T06:24:48.082Z,16.16
2023-05-07T06:27:37.863Z,16.35
2023-05-07T06:30:27.743Z,16.40
2023-05-07T06:33:16.241Z,16.53
2023-05-07T06:36:05.333Z,16.64
2023-05-07T06:38:53.809Z,16.61
2023-05-07T06:41:42.339Z,16.69
2023-05-07T06:44:32.251Z,17.01
2023-05-07T06:47:20.853Z,17.14
2023-05-07T06:50:10.919Z,17.54
2023-05-07T06:52:59.600Z,17.84
2023-05-07T06:55:48.030Z,18.13
2023-05-07T06:58:36.494Z,18.22
2023-05-07T07:01:26.309Z,18.24
2023-05-07T07:04:14.995Z,18.22
2023-05-07T07:07:03.604Z,18.21
2023-05-07T07:09:55.322Z,18.32
2023-05-07T07:12:44.914Z,18.69
2023-05-07T07:15:33.466Z,19.02
2023-05-07T07:18:23.323Z,19.48
2023-05-07T07:21:11.979Z,19.88
2023-05-07T07:24:00.499Z,19.89
2023-05-07T07:26:49.017Z,19.85
2023-05-07T07:29:37.524Z,19.86
2023-05-07T07:32:26.689Z,19.71
2023-05-07T07:35:16.966Z,19.95
2023-05-07T07:38:05.684Z,20.02
2023-05-07T07:40:54.210Z,20.19
2023-05-07T07:43:42.682Z,20.43
2023-05-07T07:46:31.288Z,20.56
2023-05-07T07:49:19.839Z,20.63
2023-05-07T07:52:09.755Z,20.56
2023-05-07T07:54:58.277Z,20.40
2023-05-07T07:57:46.740Z,20.24
2023-05-07T08:00:35.327Z,20.16
2023-05-07T08:03:23.949Z,20.32
2023-05-07T08:06:12.505Z,20.31
2023-05-07T08:09:02.784Z,20.57
2023-05-07T08:11:51.802Z,20.43
2023-05-07T08:14:40.609Z,20.94
2023-05-07T08:17:29.263Z,21.15
2023-05-07T08:20:18.046Z,21.54
2023-05-07T08:23:07.336Z,21.71
2023-05-07T08:25:57.378Z,21.97
2023-05-07T08:28:45.950Z,22.06
2023-05-07T08:31:34.794Z,22.17
2023-05-07T08:34:24.237Z,22.08
2023-05-07T08:37:12.841Z,21.91
2023-05-07T08:40:01.547Z,22.02
2023-05-07T08:42:51.989Z,21.95
2023-05-07T08:45:41.866Z,22.03
2023-05-07T08:48:31.874Z,22.04
2023-05-07T08:51:21.589Z,22.09
2023-05-07T08:54:11.398Z,22.26
2023-05-07T08:57:00.487Z,22.45
2023-05-07T08:59:50.357Z,22.68
2023-05-07T09:02:39.064Z,22.81
2023-05-07T09:05:27.569Z,23.02
2023-05-07T09:08:17.308Z,23.15
2023-05-07T09:11:06.138Z,23.33
2023-05-07T09:13:56.468Z,23.29
2023-05-07T09:16:46.337Z,23.81
2023-05-07T09:19:35.179Z,23.74
2023-05-07T09:22:23.907Z,23.77
2023-05-07T09:25:12.672Z,23.91
2023-05-07T09:28:01.827Z,24.19
2023-05-07T09:30:50.382Z,24.41
2023-05-07T09:33:40.539Z,24.42
2023-05-07T09:36:29.349Z,24.54
2023-05-07T09:39:18.438Z,24.51
2023-05-07T09:42:07.217Z,24.68
2023-05-07T09:44:57.002Z,24.70
2023-05-07T09:47:46.683Z,24.82
2023-05-07T09:50:39.523Z,24.89
2023-05-07T09:53:28.181Z,24.81
2023-05-07T09:56:17.459Z,24.71
2023-05-07T09:59:07.786Z,24.65
2023-05-07T10:01:59.245Z,24.91
2023-05-07T10:04:48.493Z,24.91
2023-05-07T10:07:38.447Z,25.19
2023-05-07T10:10:27.064Z,25.26
2023-05-07T10:13:15.865Z,25.30
2023-05-07T10:16:05.667Z,25.27
2023-05-07T10:18:55.361Z,25.48
2023-05-07T10:21:47.158Z,25.64
2023-05-07T10:24:38.918Z,25.62
2023-05-07T10:27:27.721Z,25.49
2023-05-07T10:30:24.214Z,25.61
2023-05-07T10:33:14.383Z,25.87
2023-05-07T10:36:05.448Z,25.80
2023-05-07T10:38:54.423Z,25.77
2023-05-07T10:41:44.392Z,25.98
2023-05-07T10:44:33.278Z,26.26
2023-05-07T10:47:22.027Z,26.43
2023-05-07T10:50:24.532Z,26.19
2023-05-07T10:53:27.609Z,26.28
2023-05-07T10:56:29.151Z,26.41
2023-05-07T10:59:42.929Z,26.61
2023-05-07T11:03:09.149Z,26.79
2023-05-07T11:06:14.707Z,26.75
2023-05-07T11:09:03.331Z,26.79
2023-05-07T11:11:53.136Z,26.85
2023-05-07T11:14:48.920Z,27.08
2023-05-07T11:17:54.708Z,27.09
2023-05-07T11:20:57.076Z,26.89
2023-05-07T11:24:01.499Z,26.68
2023-05-07T11:26:50.929Z,26.99
2023-05-07T11:29:39.833Z,26.95
2023-05-07T11:32:31.037Z,27.20
2023-05-07T11:35:20.159Z,26.54
2023-05-07T11:38:08.821Z,26.97
2023-05-07T11:40:59.886Z,27.14
2023-05-07T11:44:01.405Z,27.35
2023-05-07T11:46:50.654Z,27.17
2023-05-07T11:49:41.643Z,27.56
2023-05-07T11:52:30.258Z,27.49
2023-05-07T11:55:20.503Z,27.31
2023-05-07T11:58:10.748Z,27.54
2023-05-07T12:00:59.449Z,27.71
2023-05-07T12:03:48.362Z,27.55
2023-05-07T12:06:40.221Z,27.87
2023-05-07T12:09:28.794Z,27.78
2023-05-07T12:12:18.357Z,27.67
2023-05-07T12:15:08.011Z,27.53
2023-05-07T12:17:56.722Z,27.63
2023-05-07T12:20:46.101Z,27.66
2023-05-07T12:23:36.872Z,27.69
2023-05-07T12:26:25.836Z,27.84
2023-05-07T12:29:14.353Z,27.73
2023-05-07T12:32:04.135Z,27.71
2023-05-07T12:34:53.835Z,27.33
2023-05-07T12:37:43.092Z,27.41
2023-05-07T12:40:39.357Z,27.18
2023-05-07T12:43:28.843Z,26.81
2023-05-07T12:46:19.452Z,26.83
2023-05-07T12:49:08.017Z,27.15
2023-05-07T12:51:57.170Z,27.41
2023-05-07T12:54:46.444Z,27.61
2023-05-07T12:57:41.698Z,27.37
2023-05-07T13:00:37.707Z,27.82
2023-05-07T13:03:27.852Z,27.84
2023-05-07T13:06:16.570Z,27.60
2023-05-07T13:09:05.651Z,27.28
2023-05-07T13:11:54.411Z,27.00
2023-05-07T13:14:44.495Z,26.68
2023-05-07T13:17:33.161Z,26.68
2023-05-07T13:20:21.773Z,26.57
2023-05-07T13:23:10.558Z,26.61
2023-05-07T13:25:59.076Z,26.64
2023-05-07T13:28:47.618Z,26.41
2023-05-07T13:31:37.590Z,26.51
2023-05-07T13:34:26.348Z,26.49
2023-05-07T13:37:15.291Z,26.20
2023-05-07T13:40:04.682Z,25.98
2023-05-07T13:42:53.234Z,24.85
2023-05-07T13:45:42.124Z,23.51
2023-05-07T13:48:32.013Z,23.02
2023-05-07T13:51:20.498Z,22.07
2023-05-07T13:54:09.017Z,22.14
2023-05-07T13:56:57.592Z,21.98
2023-05-07T13:59:46.334Z,21.44
2023-05-07T14:02:35.233Z,21.21
2023-05-07T14:05:25.624Z,21.29
2023-05-07T14:08:14.851Z,20.69
2023-05-07T14:11:03.636Z,20.81
2023-05-07T14:13:52.143Z,20.86
2023-05-07T14:16:40.761Z,20.87
2023-05-07T14:19:30.612Z,20.96
2023-05-07T14:22:20.539Z,21.16
2023-05-07T14:25:10.658Z,21.43
2023-05-07T14:27:59.315Z,21.64
2023-05-07T14:30:49.027Z,21.80
2023-05-07T14:33:39.135Z,22.02
2023-05-07T14:36:28.948Z,22.00
2023-05-07T14:39:18.835Z,22.20
2023-05-07T14:42:08.808Z,22.18
2023-05-07T14:44:57.379Z,21.98
2023-05-07T14:47:46.070Z,21.49
2023-05-07T14:50:34.630Z,21.78
2023-05-07T14:53:23.166Z,21.92
2023-05-07T14:56:13.961Z,21.65
2023-05-07T14:59:02.703Z,21.56
2023-05-07T15:01:51.243Z,21.85
2023-05-07T15:04:41.382Z,21.95
2023-05-07T15:07:29.850Z,21.50
2023-05-07T15:10:18.632Z,21.48
2023-05-07T15:13:08.860Z,21.56
2023-05-07T15:15:57.403Z,21.43
2023-05-07T15:18:46.153Z,21.39
2023-05-07T15:21:35.783Z,21.44
2023-05-07T15:24:24.602Z,21.57
2023-05-07T15:27:13.203Z,21.42
2023-05-07T15:30:03.323Z,21.42
2023-05-07T15:32:52.053Z,21.57
2023-05-07T15:35:40.634Z,21.10
2023-05-07T15:38:29.329Z,21.39
2023-05-07T15:41:17.889Z,21.30
2023-05-07T15:44:06.500Z,21.20
2023-05-07T15:46:56.458Z,21.29
2023-05-07T15:49:45.035Z,20.92
2023-05-07T15:52:33.546Z,21.13
2023-05-07T15:55:22.144Z,21.10
2023-05-07T15:58:10.767Z,21.10
2023-05-07T16:00:59.398Z,21.18
2023-05-07T16:03:49.468Z,21.17
2023-05-07T16:06:38.105Z,21.27
2023-05-07T16:09:28.236Z,21.38
2023-05-07T16:12:18.237Z,21.41
2023-05-07T16:15:08.410Z,21.42
2023-05-07T16:17:58.266Z,21.56
2023-05-07T16:20:48.528Z,21.77
2023-05-07T16:23:37.556Z,21.18
2023-05-07T16:26:26.280Z,21.05
2023-05-07T16:29:15.856Z,21.01
2023-05-07T16:32:04.464Z,20.82
2023-05-07T16:34:53.159Z,20.53
2023-05-07T16:37:43.217Z,20.06
2023-05-07T16:40:31.800Z,19.87
2023-05-07T16:43:20.520Z,19.53
2023-05-07T16:46:09.407Z,19.39
2023-05-07T16:48:58.198Z,19.06
2023-05-07T16:51:47.143Z,18.67
2023-05-07T16:54:38.135Z,18.65
2023-05-07T16:57:26.782Z,18.43
2023-05-07T17:00:16.783Z,18.40
2023-05-07T17:03:06.100Z,18.16
2023-05-07T17:05:55.125Z,18.23
2023-05-07T17:08:43.779Z,18.37
2023-05-07T17:11:35.100Z,18.12
2023-05-07T17:14:23.760Z,18.05
2023-05-07T17:17:12.342Z,18.08
2023-05-07T17:20:01.311Z,17.87
2023-05-07T17:22:50.730Z,17.81
2023-05-07T17:25:39.268Z,17.74
2023-05-07T17:28:29.087Z,17.73
2023-05-07T17:31:17.696Z,17.67
2023-05-07T17:34:06.247Z,17.62
2023-05-07T17:36:54.774Z,17.67
2023-05-07T17:39:45.051Z,17.78
2023-05-07T17:42:33.532Z,17.89
2023-05-07T17:45:23.885Z,18.09
2023-05-07T17:48:12.773Z,18.16
2023-05-07T17:51:04.537Z,18.03
2023-05-07T17:53:53.290Z,18.02
2023-05-07T17:56:41.797Z,17.93
2023-05-07T17:59:30.556Z,17.91
2023-05-07T18:02:20.479Z,17.93
2023-05-07T18:05:09.831Z,17.98
2023-05-07T18:07:58.383Z,17.97
2023-05-07T18:10:46.939Z,17.93
2023-05-07T18:13:35.541Z,17.83
2023-05-07T18:16:24.061Z,17.81
2023-05-07T18:19:14.004Z,17.72
2023-05-07T18:22:02.540Z,17.69
2023-05-07T18:24:51.213Z,17.28
2023-05-07T18:27:39.676Z,17.53
2023-05-07T18:30:28.129Z,17.46
2023-05-07T18:33:16.711Z,17.38
2023-05-07T18:36:07.620Z,17.34
2023-05-07T18:38:56.129Z,17.33
2023-05-07T18:41:45.595Z,17.32
2023-05-07T18:44:37.463Z,17.44
2023-05-07T18:47:25.991Z,17.49
2023-05-07T18:50:15.289Z,17.42
2023-05-07T18:53:05.058Z,17.36
2023-05-07T18:55:53.991Z,17.32
2023-05-07T18:58:42.469Z,17.31
2023-05-07T19:01:31.052Z,17.20
2023-05-07T19:04:20.191Z,17.25
2023-05-07T19:07:08.726Z,17.24
2023-05-07T19:10:04.906Z,16.95
2023-05-07T19:12:55.674Z,17.33
2023-05-07T19:15:44.480Z,17.25
2023-05-07T19:18:33.140Z,17.20
2023-05-07T19:21:21.886Z,17.13
2023-05-07T19:24:10.339Z,17.01
2023-05-07T19:27:00.192Z,17.00
2023-05-07T19:29:48.646Z,16.94
2023-05-07T19:32:37.130Z,16.94
2023-05-07T19:35:25.639Z,16.94
2023-05-07T19:38:14.108Z,16.92
2023-05-07T19:41:02.680Z,16.75
2023-05-07T19:43:52.495Z,16.92
2023-05-07T19:46:44.910Z,16.90
2023-05-07T19:49:33.886Z,16.83
2023-05-07T19:52:22.387Z,16.78
2023-05-07T19:55:12.635Z,16.80
2023-05-07T19:58:01.376Z,16.82
2023-05-07T20:00:51.290Z,16.83
2023-05-07T20:03:39.912Z,16.78
2023-05-07T20:06:28.470Z,16.76
2023-05-07T20:09:16.953Z,16.83
2023-05-07T20:12:06.686Z,16.80
2023-05-07T20:14:55.139Z,16.87
2023-05-07T20:17:45.109Z,16.87
2023-05-07T20:20:33.683Z,16.59
2023-05-07T20:23:22.148Z,16.86
2023-05-07T20:26:10.603Z,16.90
2023-05-07T20:28:59.099Z,16.80
2023-05-07T20:31:47.620Z,16.81
2023-05-07T20:34:37.722Z,16.77
2023-05-07T20:37:26.865Z,16.79
2023-05-07T20:40:16.852Z,16.61
2023-05-07T20:43:07.412Z,16.55
2023-05-07T20:46:00.378Z,16.53
2023-05-07T20:48:49.389Z,16.49
2023-05-07T20:51:39.227Z,16.56
2023-05-07T20:54:28.688Z,16.50
2023-05-07T20:57:19.394Z,16.49
2023-05-07T21:00:09.313Z,16.48
2023-05-07T21:02:57.828Z,16.46
2023-05-07T21:05:51.953Z,16.46
2023-05-07T21:08:41.846Z,16.47
2023-05-07T21:11:30.285Z,16.47
2023-05-07T21:14:18.742Z,16.45
2023-05-07T21:17:07.419Z,16.35
2023-05-07T21:19:55.955Z,16.39
2023-05-07T21:22:44.388Z,16.36
2023-05-07T21:25:34.266Z,16.35
2023-05-07T21:28:22.714Z,16.39
2023-05-07T21:31:11.849Z,16.41
2023-05-07T21:34:00.321Z,16.43
2023-05-07T21:36:48.776Z,16.43
2023-05-07T21:39:37.337Z,16.45
2023-05-07T21:42:28.254Z,16.43
2023-05-07T21:45:16.750Z,16.44
2023-05-07T21:48:05.796Z,16.38
2023-05-07T21:51:01.203Z,16.29
2023-05-07T21:53:49.728Z,16.45
2023-05-07T21:56:38.440Z,16.47
2023-05-07T21:59:28.247Z,16.47
2023-05-07T22:02:16.739Z,16.47
2023-05-07T22:05:05.620Z,16.48
2023-05-07T22:07:54.305Z,16.49
2023-05-07T22:10:42.849Z,16.50
2023-05-07T22:13:31.415Z,16.56
2023-05-07T22:16:21.514Z,16.56
2023-05-07T22:19:10.534Z,16.58
2023-05-07T22:21:59.053Z,16.52
2023-05-07T22:24:47.574Z,16.54
2023-05-07T22:27:36.089Z,16.54
2023-05-07T22:30:24.841Z,16.53
2023-05-07T22:33:14.763Z,16.54
2023-05-07T22:36:03.315Z,16.56
2023-05-07T22:38:51.955Z,16.58
2023-05-07T22:41:40.750Z,16.57
2023-05-07T22:44:29.310Z,16.55
2023-05-07T22:47:17.812Z,16.52
2023-05-07T22:50:09.249Z,16.51
2023-05-07T22:52:58.208Z,16.50
2023-05-07T22:55:46.927Z,16.48
2023-05-07T22:58:35.571Z,16.45
2023-05-07T23:01:24.278Z,16.27
2023-05-07T23:04:13.145Z,16.36
2023-05-07T23:07:02.924Z,16.31
2023-05-07T23:09:51.404Z,16.32
2023-05-07T23:12:39.898Z,16.33
2023-05-07T23:15:28.483Z,16.15
2023-05-07T23:18:17.031Z,16.19
2023-05-07T23:21:06.667Z,16.12
2023-05-07T23:23:56.733Z,16.12
2023-05-07T23:26:45.489Z,16.13
2023-05-07T23:29:34.407Z,16.13
2023-05-07T23:32:22.930Z,16.17
2023-05-07T23:35:11.430Z,16.14
2023-05-07T23:38:00.249Z,15.97
2023-05-07T23:40:50.057Z,16.13
2023-05-07T23:43:38.517Z,16.13
2023-05-07T23:46:27.162Z,16.12
2023-05-07T23:49:15.613Z,16.15
2023-05-07T23:52:04.096Z,16.11
2023-05-07T23:54:52.580Z,16.19
2023-05-07T23:57:42.401Z,16.17
